Time;durP1;ratioP1;P1;durP2;ratioP2;P2;SDS_P1;SDS_P2;PMS_P1;PMS_P2;Temp;Humidity;BMP_temperature;BMP_pressure;BME280_temperature;BME280_humidity;BME280_pressure;Samples;Min_cycle;Max_cycle;Signal;HPM_P1;HPM_P2
2023/04/12 00:03:38;;;;;;;1.27;1.17;;;;;;;19.45;47.19;96513.38;10557380;28;20040;-49
2023/04/12 00:08:59;;;;;;;1.63;1.30;;;;;;;19.45;47.16;96516.06;10556797;28;20047;-47
2023/04/12 00:14:18;;;;;;;1.65;1.25;;;;;;;19.42;47.00;96501.28;10557589;28;20044;-46
2023/04/12 00:19:40;;;;;;;1.50;1.30;;;;;;;19.42;47.11;96495.09;10556675;28;20047;-49
2023/04/12 00:25:00;;;;;;;1.88;1.40;;;;;;;19.41;46.97;96494.31;10556530;28;20071;-48
2023/04/12 00:30:20;;;;;;;1.23;1.13;;;;;;;19.40;46.94;96481.91;10542878;28;20052;-47
2023/04/12 00:35:39;;;;;;;2.60;1.40;;;;;;;19.39;46.92;96453.34;10556081;28;20036;-48
2023/04/12 00:41:00;;;;;;;1.60;1.40;;;;;;;19.38;46.91;96446.34;10540443;28;20036;-46
2023/04/12 00:46:19;;;;;;;1.75;1.38;;;;;;;19.37;47.01;96447.47;10555648;28;20048;-49
2023/04/12 00:51:39;;;;;;;1.45;1.10;;;;;;;19.35;46.83;96442.41;10555393;28;20040;-47
2023/04/12 00:57:00;;;;;;;1.65;1.30;;;;;;;19.33;46.86;96447.34;10551019;28;20044;-46
2023/04/12 01:02:19;;;;;;;1.60;1.25;;;;;;;19.34;46.83;96437.31;10539955;28;20538;-48
2023/04/12 01:07:54;;;;;;;1.20;1.10;;;;;;;19.32;46.74;96434.94;10539437;28;20048;-47
2023/04/12 01:13:39;;;;;;;1.30;1.20;;;;;;;19.31;46.63;96421.81;10554632;28;20066;-47
2023/04/12 01:19:05;;;;;;;1.40;1.30;;;;;;;19.29;46.66;96416.72;10524801;28;20059;-46
2023/04/12 01:24:40;;;;;;;1.60;1.38;;;;;;;19.29;46.64;96407.84;10539029;28;20044;-47
2023/04/12 01:30:01;;;;;;;1.33;1.20;;;;;;;19.28;46.65;96409.72;10554045;28;20454;-47
2023/04/12 01:35:23;;;;;;;1.17;1.00;;;;;;;19.26;46.60;96403.09;10538703;28;20050;-47
2023/04/12 01:40:42;;;;;;;1.10;1.00;;;;;;;19.25;46.47;96404.19;10538286;28;20035;-49
2023/04/12 01:46:02;;;;;;;1.92;1.20;;;;;;;19.24;46.49;96406.13;10553504;28;20036;-46
2023/04/12 01:51:32;;;;;;;1.40;1.00;;;;;;;19.23;46.45;96401.03;10524225;28;20048;-46
2023/04/12 01:57:02;;;;;;;1.50;1.40;;;;;;;19.22;46.46;96394.06;10549271;28;20052;-49
2023/04/12 02:02:21;;;;;;;1.42;1.20;;;;;;;19.20;46.37;96385.50;10523602;28;20040;-46
2023/04/12 02:07:42;;;;;;;1.40;1.05;;;;;;;19.20;46.34;96382.81;10552935;28;20484;-49
2023/04/12 02:13:02;;;;;;;1.40;1.13;;;;;;;19.20;46.44;96385.50;10552836;28;20044;-48
2023/04/12 02:18:23;;;;;;;1.30;1.20;;;;;;;19.17;46.23;96376.19;10552610;28;20473;-47
2023/04/12 02:23:43;;;;;;;1.33;1.23;;;;;;;19.14;46.23;96366.81;10537233;28;20051;-49
2023/04/12 02:29:06;;;;;;;1.00;0.93;;;;;;;19.13;46.26;96354.44;10552416;28;20044;-48
2023/04/12 02:34:30;;;;;;;1.23;1.00;;;;;;;19.12;46.10;96350.16;10545740;28;20048;-46
2023/04/12 02:40:01;;;;;;;1.20;1.10;;;;;;;19.12;46.14;96357.47;10545340;28;20051;-48
2023/04/12 02:45:23;;;;;;;1.27;1.15;;;;;;;19.11;46.11;96361.28;10545242;28;20044;-47
2023/04/12 02:50:44;;;;;;;1.15;1.00;;;;;;;19.09;46.10;96348.13;10560303;28;20048;-50
2023/04/12 02:56:17;;;;;;;1.48;1.23;;;;;;;19.08;46.14;96334.97;10542652;28;20074;-47
2023/04/12 03:01:38;;;;;;;1.42;1.10;;;;;;;19.08;46.18;96335.75;10544473;28;20040;-47
2023/04/12 03:07:13;;;;;;;1.30;1.10;;;;;;;19.06;46.01;96327.19;10559602;28;20541;-46
2023/04/12 03:12:39;;;;;;;1.15;1.05;;;;;;;19.05;46.00;96331.03;10544102;28;20044;-46
2023/04/12 03:18:25;;;;;;;1.20;1.10;;;;;;;19.03;45.92;96317.03;10559256;28;20044;-49
2023/04/12 03:23:46;;;;;;;1.20;1.10;;;;;;;19.03;45.88;96314.34;10559019;28;20048;-48
2023/04/12 03:29:09;;;;;;;1.30;1.10;;;;;;;19.01;45.94;96308.47;10543531;28;20097;-46
2023/04/12 03:34:34;;;;;;;1.20;1.10;;;;;;;19.00;45.98;96306.91;10543379;28;20051;-46
2023/04/12 03:40:01;;;;;;;0.88;0.88;;;;;;;18.98;45.90;96303.75;10542965;28;20484;-46
2023/04/12 03:45:21;;;;;;;1.50;0.90;;;;;;;18.98;45.93;96301.06;10528494;28;20060;-46
2023/04/12 03:50:44;;;;;;;1.25;1.15;;;;;;;18.97;45.92;96296.78;10542585;28;20052;-46
2023/04/12 03:56:12;;;;;;;0.90;0.90;;;;;;;18.96;45.77;96292.50;10540353;28;20048;-49
2023/04/12 04:01:36;;;;;;;1.05;0.98;;;;;;;18.95;45.85;96296.31;10542103;28;20044;-47
2023/04/12 04:06:56;;;;;;;1.27;1.10;;;;;;;18.92;45.72;96291.59;10542061;28;20043;-46
2023/04/12 04:12:16;;;;;;;1.20;0.90;;;;;;;18.92;45.73;96288.91;10541779;28;20044;-48
2023/04/12 04:17:41;;;;;;;1.00;0.90;;;;;;;18.90;45.68;96291.13;10541536;28;20455;-48
2023/04/12 04:23:02;;;;;;;1.23;1.05;;;;;;;18.91;45.72;96287.31;10541358;28;20044;-48
2023/04/12 04:28:24;;;;;;;1.33;0.88;;;;;;;18.90;45.77;96291.13;10541165;28;20040;-45
2023/04/12 04:33:43;;;;;;;1.60;1.00;;;;;;;18.89;45.80;96297.66;10540977;28;20073;-48
2023/04/12 04:39:04;;;;;;;1.17;1.00;;;;;;;18.89;46.02;96293.03;10540665;28;20047;-48
2023/04/12 04:44:34;;;;;;;1.20;1.10;;;;;;;18.91;46.31;96292.72;10540548;28;20044;-46
2023/04/12 04:49:58;;;;;;;2.25;1.02;;;;;;;18.92;46.73;96299.69;10540322;28;20044;-46
2023/04/12 04:55:20;;;;;;;1.25;1.15;;;;;;;18.93;47.03;96301.25;10540123;28;20044;-47
2023/04/12 05:00:39;;;;;;;1.00;0.90;;;;;;;18.95;47.07;96297.13;10555058;28;20047;-47
2023/04/12 05:06:02;;;;;;;2.15;1.00;;;;;;;18.96;46.68;96297.91;10526345;28;20056;-47
2023/04/12 05:11:23;;;;;;;2.63;1.10;;;;;;;18.98;46.67;96298.38;10539403;28;20047;-48
2023/04/12 05:16:43;;;;;;;1.35;1.08;;;;;;;19.00;47.00;96304.22;10539272;28;20047;-46
2023/04/12 05:22:03;;;;;;;1.33;1.00;;;;;;;19.03;46.88;96306.25;10554353;28;20108;-46
2023/04/12 05:27:28;;;;;;;1.10;1.00;;;;;;;19.06;46.97;96292.09;10538831;28;20039;-46
2023/04/12 05:32:48;;;;;;;2.50;1.05;;;;;;;19.10;46.87;96300.31;10538680;28;20040;-46
2023/04/12 05:38:10;;;;;;;1.50;1.20;;;;;;;19.13;46.78;96286.94;10538267;28;20508;-46
2023/04/12 05:43:31;;;;;;;1.52;1.00;;;;;;;19.16;46.67;96291.66;10540081;28;20052;-46
2023/04/12 05:48:51;;;;;;;1.73;1.15;;;;;;;19.20;46.63;96282.91;10538110;28;20484;-46
2023/04/12 05:54:10;;;;;;;1.13;1.00;;;;;;;19.23;46.58;96277.63;10537976;28;20047;-45
2023/04/12 05:59:30;;;;;;;1.10;1.00;;;;;;;19.26;46.61;96263.44;10526635;28;20078;-46
2023/04/12 06:04:51;;;;;;;1.73;1.00;;;;;;;19.28;46.48;96255.00;10523952;28;20059;-47
2023/04/12 06:10:13;;;;;;;1.83;1.10;;;;;;;19.32;46.55;96245.13;10523793;28;20040;-48
2023/04/12 06:15:32;;;;;;;1.70;1.25;;;;;;;19.36;46.43;96243.31;10552792;28;20040;-47
2023/04/12 06:20:52;;;;;;;1.92;1.13;;;;;;;19.39;46.54;96248.06;10537116;28;20036;-49
2023/04/12 06:26:12;;;;;;;1.50;1.20;;;;;;;19.43;46.18;96230.06;10537138;28;20488;-49
2023/04/12 06:31:32;;;;;;;1.40;1.30;;;;;;;19.43;46.12;96227.34;10552345;28;20044;-48
2023/04/12 06:36:51;;;;;;;2.03;1.35;;;;;;;19.47;46.30;96222.84;10537021;28;20048;-48
2023/04/12 06:42:12;;;;;;;2.67;2.30;;;;;;;19.42;42.30;96214.94;10552079;28;20040;-48
2023/04/12 06:47:32;;;;;;;2.38;1.40;;;;;;;19.44;45.75;96204.59;10552109;28;20047;-47
2023/04/12 06:52:52;;;;;;;2.95;1.73;;;;;;;19.50;45.57;96188.97;10552146;28;20055;-47
2023/04/12 06:58:12;;;;;;;2.40;1.50;;;;;;;19.54;45.60;96184.44;10544287;28;20048;-46
2023/04/12 07:03:32;;;;;;;3.25;1.73;;;;;;;19.60;45.70;96171.50;10551608;28;20048;-48
2023/04/12 07:08:51;;;;;;;3.03;1.52;;;;;;;19.64;45.78;96169.69;10551144;28;20059;-46
2023/04/12 07:14:11;;;;;;;2.20;1.27;;;;;;;19.68;45.93;96162.47;10550578;28;20051;-46
2023/04/12 07:19:30;;;;;;;1.73;1.42;;;;;;;19.71;45.98;96159.09;10555982;28;20039;-47
2023/04/12 07:24:50;;;;;;;2.28;1.40;;;;;;;19.75;46.01;96138.41;10559523;28;20047;-46
2023/04/12 07:30:10;;;;;;;1.75;1.30;;;;;;;19.78;45.90;96126.94;10558848;28;20048;-47
2023/04/12 07:35:30;;;;;;;2.25;1.40;;;;;;;19.78;42.03;96132.34;10558661;28;20040;-49
2023/04/12 07:40:50;;;;;;;2.30;1.40;;;;;;;19.79;45.06;96123.09;10558162;28;20040;-47
2023/04/12 07:46:09;;;;;;;3.35;1.52;;;;;;;19.83;45.09;96121.25;10558233;28;20040;-48
2023/04/12 07:51:28;;;;;;;1.75;1.33;;;;;;;19.87;45.19;96116.75;10557899;28;20051;-47
2023/04/12 07:56:59;;;;;;;2.78;1.30;;;;;;;19.90;45.52;96120.69;10554048;28;20500;-47
2023/04/12 08:02:25;;;;;;;2.13;1.45;;;;;;;19.93;45.74;96120.81;10557164;28;20047;-48
2023/04/12 08:07:45;;;;;;;2.22;1.27;;;;;;;19.98;45.84;96121.69;10557184;28;20097;-46
2023/04/12 08:13:05;;;;;;;3.20;1.38;;;;;;;20.01;45.76;96112.88;10556890;28;20048;-46
2023/04/12 08:18:25;;;;;;;3.08;1.23;;;;;;;20.04;45.87;96121.09;10556599;28;20040;-49
2023/04/12 08:23:45;;;;;;;1.95;1.10;;;;;;;20.06;45.81;96107.25;10556704;28;20041;-48
2023/04/12 08:29:04;;;;;;;1.67;1.00;;;;;;;20.08;45.74;96100.34;10556183;28;20097;-46
2023/04/12 08:34:24;;;;;;;4.38;1.33;;;;;;;20.11;45.82;96093.47;10556173;28;20047;-49
2023/04/12 08:39:43;;;;;;;1.80;1.00;;;;;;;20.12;45.94;96082.31;10556011;28;20404;-47
2023/04/12 08:45:05;;;;;;;1.50;0.85;;;;;;;20.17;45.88;96075.06;10555813;28;20050;-49
2023/04/12 08:50:25;;;;;;;1.35;1.08;;;;;;;20.15;46.07;96064.63;10555569;28;20093;-47
2023/04/12 08:55:45;;;;;;;1.30;1.20;;;;;;;20.20;46.18;96060.88;10554496;28;20040;-46
2023/04/12 09:01:09;;;;;;;1.90;1.27;;;;;;;20.21;46.24;96055.13;10555127;28;20048;-47
2023/04/12 09:06:29;;;;;;;1.50;1.00;;;;;;;20.22;46.27;96043.16;10554543;28;20040;-47
2023/04/12 09:11:48;;;;;;;1.58;1.20;;;;;;;20.24;46.27;96030.06;10554763;28;20044;-47
2023/04/12 09:17:28;;;;;;;2.25;1.15;;;;;;;20.24;46.38;96027.38;10554529;28;20040;-47
2023/04/12 09:22:47;;;;;;;1.20;0.90;;;;;;;20.27;46.36;96007.75;10554175;28;20036;-46
2023/04/12 09:28:24;;;;;;;2.05;1.15;;;;;;;20.30;46.43;95998.16;10553816;28;20036;-46
2023/04/12 09:33:44;;;;;;;0.90;0.73;;;;;;;20.30;46.42;95979.22;10553829;28;20044;-48
2023/04/12 09:39:04;;;;;;;1.42;1.20;;;;;;;20.29;46.46;95964.91;10537953;28;20058;-48
2023/04/12 09:44:31;;;;;;;2.08;0.90;;;;;;;20.29;46.50;95959.50;10524440;28;20036;-47
2023/04/12 09:49:50;;;;;;;1.60;1.00;;;;;;;20.31;46.48;95954.53;10540009;28;20086;-46
2023/04/12 09:55:10;;;;;;;1.02;0.93;;;;;;;20.32;46.44;95961.50;10553058;28;20046;-47
2023/04/12 10:00:32;;;;;;;1.02;0.90;;;;;;;20.35;46.64;95958.09;10538946;28;20412;-47
2023/04/12 10:05:56;;;;;;;1.23;1.00;;;;;;;20.36;46.58;95958.88;10539510;28;20135;-45
2023/04/12 10:11:15;;;;;;;0.90;0.80;;;;;;;20.38;46.60;95947.72;10552849;28;20047;-45
2023/04/12 10:16:35;;;;;;;0.82;0.80;;;;;;;20.39;46.45;95941.19;10553097;28;20044;-46
2023/04/12 10:21:55;;;;;;;1.52;0.80;;;;;;;20.39;46.50;95927.66;10536655;28;20040;-48
2023/04/12 10:27:24;;;;;;;1.33;0.82;;;;;;;20.41;46.30;95925.38;10552371;28;20044;-45
2023/04/12 10:32:43;;;;;;;0.88;0.75;;;;;;;20.41;46.42;95917.28;10539017;28;20047;-47
2023/04/12 10:38:03;;;;;;;3.67;1.33;;;;;;;20.40;46.54;95899.47;10552225;28;20476;-45
2023/04/12 10:43:27;;;;;;;1.17;0.80;;;;;;;20.40;46.53;95899.47;10552374;28;20040;-45
2023/04/12 10:48:51;;;;;;;1.60;0.77;;;;;;;20.41;46.56;95882.09;10552132;28;20078;-46
2023/04/12 10:54:15;;;;;;;1.83;0.90;;;;;;;20.41;46.49;95882.09;10558311;28;20044;-45
2023/04/12 10:59:50;;;;;;;1.55;0.80;;;;;;;20.41;46.47;95880.19;10548579;28;20553;-45
2023/04/12 11:05:10;;;;;;;1.00;0.77;;;;;;;20.42;46.46;95867.44;10559852;28;20415;-46
2023/04/12 11:10:45;;;;;;;1.45;0.80;;;;;;;20.41;46.30;95863.16;10559695;28;20407;-45
2023/04/12 11:16:11;;;;;;;1.15;0.80;;;;;;;20.41;46.28;95846.94;10543998;28;20040;-45
2023/04/12 11:21:31;;;;;;;1.70;1.10;;;;;;;20.41;46.22;95842.31;10559122;28;20474;-45
2023/04/12 11:26:50;;;;;;;1.80;0.98;;;;;;;20.41;46.14;95836.13;10558992;28;20508;-45
2023/04/12 11:32:15;;;;;;;1.58;0.98;;;;;;;20.41;46.19;95831.47;10558841;28;20044;-46
2023/04/12 11:37:35;;;;;;;1.05;0.80;;;;;;;20.42;46.04;95816.03;10558603;28;20051;-46
2023/04/12 11:42:56;;;;;;;1.77;0.80;;;;;;;20.41;46.01;95809.06;10558312;28;20047;-46
2023/04/12 11:48:16;;;;;;;4.88;1.13;;;;;;;20.39;39.81;95803.22;10558197;28;20431;-46
2023/04/12 11:53:35;;;;;;;2.75;0.98;;;;;;;20.33;36.89;95816.25;10557939;28;20484;-45
2023/04/12 11:58:55;;;;;;;2.70;0.95;;;;;;;20.32;35.51;95795.72;10548077;28;20055;-48
2023/04/12 12:04:15;;;;;;;2.45;1.00;;;;;;;20.31;34.39;95783.34;10556754;28;20076;-48
2023/04/12 12:09:35;;;;;;;5.43;1.45;;;;;;;20.29;34.27;95778.28;10543816;28;20094;-47
2023/04/12 12:14:58;;;;;;;3.13;0.73;;;;;;;20.29;33.94;95764.00;10557252;28;20047;-47
2023/04/12 12:20:20;;;;;;;3.97;0.95;;;;;;;20.26;33.12;95757.34;10556829;28;20036;-45
2023/04/12 12:25:44;;;;;;;4.78;0.90;;;;;;;20.24;32.86;95748.81;10556697;28;20040;-49
2023/04/12 12:31:11;;;;;;;4.18;1.00;;;;;;;20.12;30.64;95732.72;10542929;28;20052;-48
2023/04/12 12:36:32;;;;;;;5.13;0.82;;;;;;;20.14;34.63;95711.50;10556289;28;20066;-47
2023/04/12 12:41:54;;;;;;;3.53;0.80;;;;;;;20.12;35.35;95711.09;10542119;28;20044;-48
2023/04/12 12:47:13;;;;;;;1.88;0.80;;;;;;;20.14;36.46;95708.81;10555922;28;20408;-50
2023/04/12 12:52:32;;;;;;;3.70;1.00;;;;;;;20.14;36.03;95692.59;10555571;28;20510;-46
2023/04/12 12:57:53;;;;;;;3.78;1.13;;;;;;;20.15;34.59;95686.81;10548659;28;20531;-46
2023/04/12 13:03:13;;;;;;;3.92;0.90;;;;;;;20.19;34.14;95689.63;10555184;28;20043;-46
2023/04/12 13:08:34;;;;;;;2.53;0.95;;;;;;;20.20;35.94;95684.97;10541367;28;20040;-49
2023/04/12 13:13:53;;;;;;;2.08;0.77;;;;;;;20.18;35.86;95671.81;10554119;28;20040;-47
2023/04/12 13:19:14;;;;;;;1.70;0.85;;;;;;;20.19;36.52;95657.16;10554107;28;20506;-47
2023/04/12 13:24:35;;;;;;;2.20;1.00;;;;;;;20.18;36.64;95658.28;10540779;28;20106;-48
2023/04/12 13:29:54;;;;;;;1.13;0.80;;;;;;;20.18;36.83;95647.47;10553964;28;20412;-46
2023/04/12 13:35:14;;;;;;;3.95;1.02;;;;;;;20.18;37.04;95633.94;10553754;28;20044;-45
2023/04/12 13:40:34;;;;;;;2.30;1.23;;;;;;;20.21;37.82;95616.22;10553655;28;20505;-46
2023/04/12 13:45:53;;;;;;;1.75;0.85;;;;;;;20.22;38.21;95621.28;10553447;28;20484;-47
2023/04/12 13:51:12;;;;;;;2.15;0.77;;;;;;;20.23;38.75;95622.06;10553380;28;20055;-46
2023/04/12 13:56:32;;;;;;;1.88;0.90;;;;;;;20.25;39.36;95617.88;10550150;28;20056;-48
2023/04/12 14:01:51;;;;;;;2.05;0.70;;;;;;;20.29;40.21;95623.34;10552796;28;20048;-47
2023/04/12 14:07:11;;;;;;;1.65;0.80;;;;;;;20.26;40.29;95614.00;10552812;28;20043;-46
2023/04/12 14:12:31;;;;;;;2.47;1.00;;;;;;;20.28;40.85;95619.84;10552737;28;20055;-47
2023/04/12 14:17:50;;;;;;;2.55;1.00;;;;;;;20.29;41.09;95616.03;10552591;28;20066;-46
2023/04/12 14:23:10;;;;;;;1.50;0.68;;;;;;;20.30;41.22;95614.09;10552688;28;20036;-46
2023/04/12 14:28:30;;;;;;;1.50;0.70;;;;;;;20.31;41.64;95615.66;10558091;28;20043;-48
2023/04/12 14:33:52;;;;;;;3.42;0.90;;;;;;;20.32;42.16;95601.75;10561285;28;20404;-47
2023/04/12 14:39:11;;;;;;;2.65;0.70;;;;;;;20.33;42.64;95594.47;10560970;28;20036;-46
2023/04/12 14:44:31;;;;;;;1.40;0.90;;;;;;;20.33;43.00;95597.94;10560882;28;20036;-56
2023/04/12 14:49:51;;;;;;;3.55;0.90;;;;;;;20.32;43.32;95582.06;10560688;28;20101;-56
2023/04/12 14:55:10;;;;;;;3.65;0.70;;;;;;;20.33;43.45;95587.13;10560374;28;20032;-60
2023/04/12 15:00:29;;;;;;;1.73;0.90;;;;;;;20.32;43.48;95580.13;10546148;28;20055;-46
2023/04/12 15:05:49;;;;;;;1.73;0.90;;;;;;;20.34;44.14;95577.06;10559961;28;20071;-46
2023/04/12 15:11:09;;;;;;;2.20;0.65;;;;;;;20.36;44.27;95566.66;10559632;28;20048;-50
2023/04/12 15:16:29;;;;;;;1.00;0.60;;;;;;;20.34;44.80;95566.25;10559538;28;20488;-56
2023/04/12 15:21:55;;;;;;;3.70;0.90;;;;;;;20.34;44.90;95561.63;10559198;28;20040;-56
2023/04/12 15:27:15;;;;;;;2.25;0.90;;;;;;;20.33;45.69;95568.19;10558984;28;20036;-57
2023/04/12 15:32:37;;;;;;;4.10;0.98;;;;;;;20.33;45.63;95543.84;10558787;28;20044;-56
2023/04/12 15:37:57;;;;;;;2.15;0.68;;;;;;;20.33;46.15;95541.13;10557652;28;20404;-47
2023/04/12 15:43:17;;;;;;;1.58;0.73;;;;;;;20.34;46.14;95526.47;10558504;28;20074;-47
2023/04/12 15:48:37;;;;;;;1.58;0.75;;;;;;;20.34;42.34;95512.94;10544780;28;20044;-45
2023/04/12 15:53:57;;;;;;;3.13;0.90;;;;;;;20.31;44.59;95513.66;10542862;28;20401;-46
2023/04/12 15:59:19;;;;;;;1.80;0.93;;;;;;;20.31;45.20;95516.38;10547180;28;20052;-45
2023/04/12 16:04:41;;;;;;;2.65;0.93;;;;;;;20.30;43.09;95516.72;10557648;28;20480;-44
2023/04/12 16:10:02;;;;;;;2.15;0.80;;;;;;;20.29;44.46;95521.38;10557398;28;20377;-48
2023/04/12 16:15:21;;;;;;;2.83;0.80;;;;;;;20.28;44.68;95525.19;10557069;28;20044;-46
2023/04/12 16:20:41;;;;;;;1.63;0.90;;;;;;;20.28;44.85;95525.19;10556864;28;20085;-47
2023/04/12 16:26:01;;;;;;;1.65;0.90;;;;;;;20.26;45.21;95530.19;10556788;28;20450;-45
2023/04/12 16:31:21;;;;;;;4.28;0.95;;;;;;;20.26;45.51;95532.88;10556530;28;20039;-45
2023/04/12 16:36:41;;;;;;;2.72;0.80;;;;;;;20.26;45.11;95524.78;10556260;28;20048;-45
2023/04/12 16:42:02;;;;;;;1.40;0.68;;;;;;;20.26;45.72;95530.19;10555845;28;20047;-45
2023/04/12 16:47:23;;;;;;;1.95;0.80;;;;;;;20.25;46.12;95527.84;10555597;28;20036;-46
2023/04/12 16:52:43;;;;;;;4.47;0.80;;;;;;;20.25;46.44;95525.94;10555235;28;20044;-51
2023/04/12 16:58:02;;;;;;;3.63;0.80;;;;;;;20.24;47.07;95516.25;10547980;28;20093;-52
2023/04/12 17:03:24;;;;;;;1.38;0.80;;;;;;;20.23;47.01;95500.38;10555267;28;20492;-50
2023/04/12 17:08:45;;;;;;;2.55;0.80;;;;;;;20.24;47.58;95510.06;10539671;28;20036;-46
2023/04/12 17:14:05;;;;;;;1.83;0.82;;;;;;;20.25;48.13;95514.34;10554653;28;20040;-45
2023/04/12 17:19:24;;;;;;;1.83;0.77;;;;;;;20.25;48.33;95506.22;10554488;28;20085;-53
2023/04/12 17:24:45;;;;;;;1.30;0.80;;;;;;;20.24;48.53;95515.47;10554418;28;20044;-52
2023/04/12 17:30:06;;;;;;;2.72;0.80;;;;;;;20.22;48.52;95513.13;10554258;28;20044;-52
2023/04/12 17:35:26;;;;;;;4.38;0.80;;;;;;;20.22;48.58;95518.53;10553892;28;20048;-53
2023/04/12 17:40:46;;;;;;;2.35;0.90;;;;;;;20.22;48.54;95521.22;10553431;28;20044;-53
2023/04/12 17:46:06;;;;;;;1.48;0.77;;;;;;;20.22;48.58;95509.63;10553481;28;20400;-52
2023/04/12 17:51:25;;;;;;;3.22;0.93;;;;;;;20.21;48.57;95508.88;10539557;28;20040;-53
2023/04/12 17:56:48;;;;;;;1.83;0.70;;;;;;;20.20;48.76;95512.69;10549623;28;20496;-52
2023/04/12 18:02:07;;;;;;;1.40;0.90;;;;;;;20.19;48.72;95513.84;10538905;28;20117;-45
2023/04/12 18:07:29;;;;;;;2.97;0.73;;;;;;;20.17;48.42;95499.91;10553009;28;20044;-52
2023/04/12 18:12:49;;;;;;;1.50;0.75;;;;;;;20.15;48.94;95505.66;10552979;28;20039;-51
2023/04/12 18:18:08;;;;;;;1.45;0.80;;;;;;;20.15;49.04;95491.38;10552804;28;20385;-51
2023/04/12 18:23:28;;;;;;;1.17;0.70;;;;;;;20.15;49.10;95494.84;10552435;28;20040;-50
2023/04/12 18:28:48;;;;;;;1.08;0.70;;;;;;;20.14;48.99;95492.50;10551836;28;20514;-54
2023/04/12 18:34:08;;;;;;;1.27;0.70;;;;;;;20.15;49.23;95496.78;10552480;28;20044;-54
2023/04/12 18:39:28;;;;;;;2.10;0.60;;;;;;;20.14;48.93;95506.03;10552248;28;20085;-46
2023/04/12 18:44:47;;;;;;;1.13;0.63;;;;;;;20.13;49.30;95499.03;10551911;28;20043;-48
2023/04/12 18:50:07;;;;;;;1.70;0.60;;;;;;;20.11;49.25;95501.31;10552063;28;20052;-50
2023/04/12 18:55:27;;;;;;;2.05;0.55;;;;;;;20.11;49.41;95498.63;10551962;28;20043;-52
2023/04/12 19:00:46;;;;;;;2.25;0.70;;;;;;;20.10;49.49;95486.25;10551337;28;20165;-52
2023/04/12 19:06:05;;;;;;;0.90;0.60;;;;;;;20.09;49.59;95474.66;10551883;28;20044;-50
2023/04/12 19:11:26;;;;;;;0.90;0.43;;;;;;;20.10;49.50;95491.66;10551661;28;20450;-52
2023/04/12 19:16:46;;;;;;;1.83;0.85;;;;;;;20.09;49.64;95484.69;10559497;28;20047;-52
2023/04/12 19:22:06;;;;;;;2.17;0.70;;;;;;;20.08;49.65;95481.19;10559118;28;20047;-53
2023/04/12 19:27:25;;;;;;;1.20;0.70;;;;;;;20.08;49.94;95494.72;10559105;28;20036;-50
2023/04/12 19:32:45;;;;;;;1.95;0.75;;;;;;;20.08;49.92;95488.53;10558927;28;20051;-51
2023/04/12 19:38:04;;;;;;;1.75;0.90;;;;;;;20.06;50.09;95478.06;10545206;28;20056;-51
2023/04/12 19:43:24;;;;;;;2.53;0.85;;;;;;;20.06;50.27;95471.91;10558399;28;20047;-45
2023/04/12 19:48:45;;;;;;;2.85;1.00;;;;;;;20.06;50.21;95467.25;10558303;28;20048;-55
2023/04/12 19:54:08;;;;;;;3.72;1.00;;;;;;;20.05;50.49;95464.91;10557736;28;20050;-46
2023/04/12 19:59:32;;;;;;;3.70;1.10;;;;;;;20.04;50.33;95458.72;10546221;28;20048;-46
2023/04/12 20:04:52;;;;;;;3.78;1.08;;;;;;;20.05;50.57;95473.03;10557678;28;20048;-46
2023/04/12 20:10:14;;;;;;;9.98;1.65;;;;;;;20.04;50.51;95471.47;10542337;28;20106;-45
2023/04/12 20:15:34;;;;;;;3.72;1.48;;;;;;;20.04;50.50;95479.59;10557148;28;20093;-45
2023/04/12 20:20:56;;;;;;;6.45;1.38;;;;;;;20.03;50.64;95475.31;10556860;28;20472;-46
2023/04/12 20:26:17;;;;;;;3.55;1.27;;;;;;;20.03;50.48;95475.31;10556050;28;20040;-46
2023/04/12 20:31:36;;;;;;;4.25;1.40;;;;;;;20.01;50.57;95466.78;10556585;28;20404;-44
2023/04/12 20:36:56;;;;;;;8.10;1.77;;;;;;;20.01;50.61;95467.53;10556320;28;20058;-46
2023/04/12 20:42:19;;;;;;;5.88;2.10;;;;;;;19.99;50.66;95469.81;10556027;28;20075;-45
2023/04/12 20:47:39;;;;;;;6.75;2.33;;;;;;;20.00;50.49;95459.81;10555905;28;20044;-45
2023/04/12 20:52:59;;;;;;;10.45;2.47;;;;;;;19.99;50.54;95469.06;10555755;28;20070;-45
2023/04/12 20:58:18;;;;;;;8.57;2.90;;;;;;;19.98;50.51;95472.91;10547580;28;20052;-45
2023/04/12 21:03:39;;;;;;;12.27;3.40;;;;;;;19.97;50.32;95464.00;10555212;28;20093;-47
2023/04/12 21:09:00;;;;;;;11.60;3.22;;;;;;;19.95;50.13;95448.16;10555041;28;20040;-45
2023/04/12 21:14:20;;;;;;;11.25;3.25;;;;;;;19.95;50.17;95447.34;10554896;28;20416;-45
2023/04/12 21:19:40;;;;;;;15.75;3.95;;;;;;;19.94;50.14;95451.22;10554695;28;20048;-44
2023/04/12 21:25:00;;;;;;;14.05;4.38;;;;;;;19.93;49.89;95449.63;10554485;28;20044;-46
2023/04/12 21:30:20;;;;;;;11.40;3.50;;;;;;;19.93;50.02;95447.75;10554246;28;20048;-48
2023/04/12 21:35:39;;;;;;;10.00;3.25;;;;;;;19.91;50.65;95452.69;10553139;28;20047;-45
2023/04/12 21:41:10;;;;;;;12.60;3.30;;;;;;;19.90;51.21;95464.66;10553758;28;20044;-45
2023/04/12 21:46:29;;;;;;;9.52;2.92;;;;;;;19.89;50.98;95465.00;10538631;28;20377;-44
2023/04/12 21:51:51;;;;;;;9.10;2.97;;;;;;;19.88;50.93;95475.06;10553605;28;20048;-47
2023/04/12 21:57:11;;;;;;;6.75;2.58;;;;;;;19.88;51.00;95474.28;10548299;28;20044;-45
2023/04/12 22:02:30;;;;;;;7.70;2.83;;;;;;;19.87;50.92;95484.28;10553177;28;20032;-44
2023/04/12 22:07:50;;;;;;;9.25;2.53;;;;;;;19.85;50.67;95481.16;10552965;28;20044;-45
2023/04/12 22:13:09;;;;;;;7.40;2.17;;;;;;;19.83;50.63;95472.63;10553049;28;20492;-46
2023/04/12 22:18:30;;;;;;;7.43;2.25;;;;;;;19.83;50.45;95469.94;10552750;28;20047;-45
2023/04/12 22:23:53;;;;;;;7.75;2.47;;;;;;;19.83;50.47;95477.25;10537442;28;20484;-45
2023/04/12 22:29:16;;;;;;;7.13;2.50;;;;;;;19.81;50.34;95469.50;10552585;28;20048;-45
2023/04/12 22:34:36;;;;;;;5.07;2.05;;;;;;;19.80;50.43;95483.38;10552369;28;20051;-46
2023/04/12 22:39:55;;;;;;;7.28;2.53;;;;;;;19.81;50.28;95484.94;10552309;28;20036;-44
2023/04/12 22:45:16;;;;;;;7.75;2.30;;;;;;;19.77;50.25;95455.16;10552158;28;20097;-47
2023/04/12 22:50:35;;;;;;;5.90;2.33;;;;;;;19.77;50.22;95468.66;10558723;28;20047;-44
2023/04/12 22:55:55;;;;;;;5.95;1.90;;;;;;;19.75;50.09;95458.19;10559042;28;20097;-45
2023/04/12 23:01:16;;;;;;;6.38;2.25;;;;;;;19.74;50.06;95456.66;10546569;28;20123;-45
2023/04/12 23:06:40;;;;;;;6.20;1.90;;;;;;;19.73;50.26;95487.50;10559803;28;20048;-45
2023/04/12 23:12:00;;;;;;;4.97;1.95;;;;;;;19.74;49.93;95491.00;10559667;28;20074;-47
2023/04/12 23:17:20;;;;;;;5.07;2.10;;;;;;;19.72;49.94;95482.47;10559646;28;20403;-43
2023/04/12 23:22:56;;;;;;;3.97;2.05;;;;;;;19.70;49.94;95468.50;10559239;28;20047;-46
2023/04/12 23:28:16;;;;;;;5.32;1.80;;;;;;;19.71;49.88;95459.25;10559252;28;20047;-48
2023/04/12 23:33:37;;;;;;;5.25;1.80;;;;;;;19.69;49.75;95459.59;10558445;28;20059;-45
2023/04/12 23:39:00;;;;;;;3.97;2.13;;;;;;;19.68;49.78;95454.56;10558702;28;20040;-44
2023/04/12 23:44:20;;;;;;;3.85;1.75;;;;;;;19.66;49.74;95473.03;10558584;28;20048;-45
2023/04/12 23:49:41;;;;;;;4.53;1.77;;;;;;;19.66;49.61;95483.84;10558416;28;20097;-45
2023/04/12 23:55:01;;;;;;;3.50;1.70;;;;;;;19.65;49.52;95488.47;10558190;28;20081;-44
